Rota International Airport
PGRO : now visible

Airfield :











YOU CAN JOIN US ON...

 
LOGIN :

Register | Disclaimer

   EN    FR    IT 

 









Legend :    VFR   Marginal VFR   IFR   Intensive IFR   Very Intensive IFR
Visi :
Ceiling :
>= 8 km
>= 3000ft
5 to 8 km
1000 to 3000 ft
1500m to 5 km
500 to 1000 ft
800 to 1500m
200 to 500 ft
< 800m
< 200 ft
Symbols :   Thunderstorms  Fog  Heavy snow  Heavy precipitations  Wind > 20 kt







- Airport Elevation : 607 ft
- IATA code : ROP


PGRO - Rota International

CURRENT METAR :
  • 202050Z 08008KT 7SM SCT020 SCT100 24/22 A2986 RMK WIND DATA ESTIMATED

EXPIRED METARs :
  • 202041Z 08007KT 7SM SCT020 SCT100 24/22 A2986 RMK WIND DATA ESTIMATED FIRST

TAF PGRO
Valid from the 20 at 21:00 until the 21 at 18:00 UTC


202059Z 2021/2118 07006KT P6SM VCSH FEW025 SCT050
FM210000 07013KT P6SM VCSH FEW025 SCT050
FM210800 07008KT P6SM FEW025 FEW050
PGZU FIR / Oceania



MET'MAP, your aeronautical weather chart ! - Copyright ORBIFLY December 2007 - Disclaimer

ORBIFLY MET'MAP TEAM :

Programming & Development : Alexandra Zaïnal
Concept & Development : Baudouin d'Aumeries
Co-Development & Prog : Marc-Olivier Méhu
Technical & hardware support : Manuel Goepfert

Contact : metmap@orbifly.com




SOURCES & CREDITS :

   NOAA       Earth
Advisory